Stations météo

réclame
Mon MeteoGroup
Ell, Pays-Bas (6377): Température de l'air & dewpoint: 16.06.2018 19:00:00 - 22.06.2018 19:00:00 (CEST)Ell, Pays-Bas (6377): Température de l'air 5cm: 16.06.2018 19:00:00 - 22.06.2018 19:00:00 (CEST)Ell, Pays-Bas (6377): Vitesse du vent & gusts: 16.06.2018 19:00:00 - 22.06.2018 19:00:00 (CEST)Ell, Pays-Bas (6377): Direction du vent: 16.06.2018 19:00:00 - 22.06.2018 19:00:00 (CEST)Ell, Pays-Bas (6377): visibility: 16.06.2018 19:00:00 - 22.06.2018 19:00:00 (CEST)Ell, Pays-Bas (6377): Quantités de précipitations: 16.06.2018 19:00:00 - 22.06.2018 19:00:00 (CEST)
Date & Time tt [°C] td [°C] tt 5cm [°C] ff [km/h] ff [knt] fx [km/h] fx [knt] dd vv [km] rr [mm]
22.06.2018 19:00:00 14,9 8,0 15,7 22 12 - - NW 29 -
22.06.2018 18:00:00 16,0 8,4 16,4 25 14 36 19 NW 17 0,0
22.06.2018 17:00:00 15,5 8,9 16,2 22 12 43 23 NW 13 0,0
22.06.2018 16:00:00 15,3 9,8 18,5 22 12 36 19 WNW 14 0,0
22.06.2018 15:00:00 14,5 8,2 15,8 25 14 40 21 NW 23 0,0
22.06.2018 14:00:00 15,0 7,6 16,5 22 12 40 21 WNW 24 0,0
22.06.2018 13:00:00 14,5 6,9 15,2 22 12 40 21 WNW 19 0,0
22.06.2018 12:00:00 14,6 6,5 16,4 25 14 43 23 WNW 22 0,0
22.06.2018 11:00:00 14,4 5,9 14,4 25 14 43 23 WNW 18 0,0
22.06.2018 10:00:00 13,7 4,7 13,9 29 16 47 25 NW 18 0,0
22.06.2018 09:00:00 14,1 6,7 15,3 22 12 40 21 WNW 21 0,0
22.06.2018 08:00:00 12,4 7,5 12,0 18 10 32 18 W 24 0,0
22.06.2018 07:00:00 9,9 6,8 8,9 18 10 25 14 W 25 0,0
22.06.2018 06:00:00 8,6 6,2 7,5 14 8 22 12 WSW 20 0,0
22.06.2018 05:00:00 8,4 5,9 7,1 11 6 22 12 WSW 23 0,0
22.06.2018 04:00:00 9,1 5,9 8,2 14 8 22 12 W 25 0,0
22.06.2018 03:00:00 9,3 5,9 8,2 14 8 22 12 W 24 0,0
22.06.2018 02:00:00 9,0 5,6 7,6 11 6 22 12 WSW 23 0,0
22.06.2018 01:00:00 9,5 5,7 7,7 11 6 18 10 WSW 26 0,0
22.06.2018 00:00:00 9,1 5,9 7,8 11 6 18 10 W 28 0,0
21.06.2018 23:00:00 11,5 6,0 9,3 14 8 25 14 WNW 26 0,0
21.06.2018 22:00:00 12,2 6,0 10,2 14 8 29 16 WNW 32 0,0
21.06.2018 21:00:00 13,7 5,6 11,4 22 12 36 19 WNW 28 0,0
21.06.2018 20:00:00 10,4 9,1 11,0 29 16 43 23 WNW 0,1 0,0
21.06.2018 19:00:00 14,4 7,9 13,1 22 12 40 21 NW 1,7 0,0
21.06.2018 18:00:00 15,1 7,3 15,1 22 12 40 21 WNW 4,7 0,0
21.06.2018 17:00:00 15,2 5,6 16,0 25 14 47 25 WNW 6 0,0
21.06.2018 16:00:00 15,5 5,3 17,8 29 16 47 25 NW 13 0,0
21.06.2018 15:00:00 18,6 4,0 19,2 25 14 50 27 WNW 15 0,0
21.06.2018 14:00:00 18,3 3,6 23,4 32 18 54 29 WNW 13 0,0
21.06.2018 13:00:00 17,9 4,4 20,9 29 16 50 27 WNW 21 0,0
21.06.2018 12:00:00 18,2 6,0 21,7 29 16 50 27 WNW 10 0,0
21.06.2018 11:00:00 16,7 9,6 16,3 29 16 58 31 WNW 17 0,0
21.06.2018 10:00:00 17,2 10,9 18,9 25 14 43 23 WNW 13 0,0
21.06.2018 09:00:00 16,4 11,4 16,9 29 16 40 21 WNW 16 0,0
21.06.2018 08:00:00 17,4 13,9 17,9 25 14 32 18 W 16 0,0
21.06.2018 07:00:00 17,2 15,0 16,9 18 10 22 12 W 10 0,0
21.06.2018 06:00:00 16,8 14,6 16,1 14 8 25 14 W 2,9 0,0
21.06.2018 05:00:00 15,9 13,9 14,3 11 6 14 8 WSW 19 0,0
21.06.2018 04:00:00 15,7 13,5 13,5 7 4 14 8 SW 15 0,0
21.06.2018 03:00:00 16,3 13,7 12,7 7 4 14 8 SW 16 0,0
21.06.2018 02:00:00 15,4 13,3 10,7 7 4 11 6 SW 14 0,0
21.06.2018 01:00:00 16,6 13,9 13,5 7 4 11 6 W 24 0,0
21.06.2018 00:00:00 17,1 14,2 13,4 7 4 11 6 WSW 27 0,0
20.06.2018 23:00:00 18,1 13,9 15,2 7 4 11 6 SW 24 0,0
20.06.2018 22:00:00 21,4 14,1 19,9 7 4 18 10 W 35 0,0
20.06.2018 21:00:00 24,7 14,2 24,8 11 6 25 14 W 31 0,0
20.06.2018 20:00:00 26,5 14,5 27,2 11 6 25 14 W 32 0,0
20.06.2018 19:00:00 27,1 13,7 28,3 14 8 25 14 W 6 0,0
20.06.2018 18:00:00 28,1 14,1 30,4 14 8 25 14 WSW 40 0,0
20.06.2018 17:00:00 28,2 13,0 33,3 18 10 29 16 WSW 35 0,0
20.06.2018 16:00:00 28,1 14,4 33,0 11 6 29 16 WSW 34 0,0
20.06.2018 15:00:00 27,1 14,5 31,7 14 8 25 14 WSW 36 0,0
20.06.2018 14:00:00 25,8 15,3 31,3 11 6 25 14 WSW 18 0,0
20.06.2018 13:00:00 24,4 15,4 30,3 14 8 29 16 WSW 25 0,0
20.06.2018 12:00:00 23,5 15,6 29,1 11 6 25 14 WSW 31 0,0
20.06.2018 11:00:00 22,1 15,3 25,2 18 10 25 14 WSW 3,4 0,0
20.06.2018 10:00:00 21,3 15,2 23,5 18 10 25 14 SW 34 0,0
20.06.2018 09:00:00 20,2 15,1 22,1 14 8 25 14 SW 14 0,0
20.06.2018 08:00:00 18,7 14,8 19,0 14 8 22 12 WSW 33 0,0
20.06.2018 07:00:00 17,5 15,4 16,7 7 4 14 8 SW 22 0,0
20.06.2018 06:00:00 16,5 15,9 15,6 7 4 7 4 S 11 0,0
20.06.2018 05:00:00 15,4 14,9 13,9 4 2 7 4 S 10 0,0
20.06.2018 04:00:00 16,3 15,4 14,8 4 2 7 4 S 11 0,0
20.06.2018 03:00:00 17,4 15,8 16,8 4 2 7 4 SSW 14 0,0
20.06.2018 02:00:00 18,0 16,2 17,4 4 2 11 6 WSW 10 0,0
20.06.2018 01:00:00 18,8 15,9 17,9 7 4 7 4 WSW 17 0,0
20.06.2018 00:00:00 18,8 15,8 18,0 4 2 7 4 SW 16 0,0
19.06.2018 23:00:00 19,2 15,9 18,2 4 2 7 4 WSW 15 0,0
19.06.2018 22:00:00 19,6 15,9 19,1 4 2 11 6 WSW 22 0,0
19.06.2018 21:00:00 20,2 15,8 20,1 7 4 14 8 WSW 20 0,0
19.06.2018 20:00:00 20,8 15,7 21,3 7 4 14 8 WSW 24 0,0
19.06.2018 19:00:00 21,4 15,5 22,6 7 4 18 10 WSW 22 0,0
19.06.2018 18:00:00 21,8 15,6 24,1 7 4 22 12 WSW 22 0,0
19.06.2018 17:00:00 21,4 15,1 23,9 14 8 22 12 W 25 0,0
19.06.2018 16:00:00 20,9 15,4 23,0 14 8 25 14 WSW 15 0,0
19.06.2018 15:00:00 20,5 15,7 22,3 14 8 22 12 W 16 0,0
19.06.2018 14:00:00 20,4 15,9 21,5 7 4 18 10 SW 19 0,0
19.06.2018 13:00:00 19,8 15,6 21,8 11 6 22 12 W 20 0,0
19.06.2018 12:00:00 19,0 16,0 20,3 14 8 25 14 WSW 11 0,0
19.06.2018 11:00:00 18,5 15,1 19,6 14 8 25 14 WSW 16 0,0
19.06.2018 10:00:00 17,7 14,8 18,2 14 8 22 12 WSW 17 0,0
19.06.2018 09:00:00 17,0 14,3 17,1 11 6 25 14 WSW 15 0,0
19.06.2018 08:00:00 16,3 13,9 16,2 14 8 25 14 SW 19 0,0
19.06.2018 07:00:00 15,3 13,3 15,1 14 8 25 14 SW 15 0,0
19.06.2018 06:00:00 14,6 12,6 13,9 14 8 22 12 SW 20 0,0
19.06.2018 05:00:00 13,8 11,6 12,6 14 8 22 12 SW 25 0,0
19.06.2018 04:00:00 13,9 11,4 12,8 11 6 22 12 SW 28 0,0
19.06.2018 03:00:00 14,4 11,6 13,0 14 8 22 12 SW 36 0,0
19.06.2018 02:00:00 13,7 11,5 11,9 7 4 14 8 SSW 34 0,0
19.06.2018 01:00:00 14,3 11,4 11,6 7 4 11 6 SW 44 0,0
19.06.2018 00:00:00 14,7 11,8 12,5 7 4 14 8 SW 40 0,0
18.06.2018 23:00:00 17,0 12,5 15,7 14 8 22 12 WSW 31 0,0
18.06.2018 22:00:00 17,5 12,4 16,8 7 4 22 12 SW 40 0,0
18.06.2018 21:00:00 19,2 12,4 18,7 14 8 32 18 WSW 36 0,0
18.06.2018 20:00:00 20,6 13,3 20,7 18 10 32 18 W 41 0,0
18.06.2018 19:00:00 21,3 13,9 22,3 22 12 36 19 WSW 36 0,0
18.06.2018 18:00:00 22,5 15,2 24,1 18 10 36 19 W 29 0,0
18.06.2018 17:00:00 21,1 14,9 22,5 18 10 29 16 WSW 37 0,0
18.06.2018 16:00:00 21,3 15,0 23,8 18 10 32 18 WSW 22 0,0
18.06.2018 15:00:00 20,8 15,0 23,1 18 10 29 16 WSW 25 0,0
18.06.2018 14:00:00 19,1 15,3 20,4 18 10 29 16 WSW 14 0,0
18.06.2018 13:00:00 19,7 14,9 21,3 18 10 36 19 WSW 30 0,0
18.06.2018 12:00:00 20,4 14,1 22,3 22 12 32 18 SW 35 0,0
18.06.2018 11:00:00 19,8 13,5 21,6 18 10 32 18 SW 28 0,0
18.06.2018 10:00:00 18,9 13,4 20,8 18 10 32 18 SSW 26 0,0
18.06.2018 09:00:00 18,6 13,0 19,6 18 10 32 18 SW 32 0,0
18.06.2018 08:00:00 17,2 11,9 17,8 18 10 25 14 SSW 26 0,0
18.06.2018 07:00:00 16,2 12,1 16,0 11 6 18 10 SSW 27 0,0
18.06.2018 06:00:00 15,6 11,8 15,2 7 4 14 8 SSW 27 0,0
18.06.2018 05:00:00 15,3 11,5 14,6 7 4 11 6 SSW 36 0,0
18.06.2018 04:00:00 15,3 10,9 14,7 7 4 11 6 SSW 37 0,0
18.06.2018 03:00:00 15,2 10,6 14,7 7 4 11 6 S 35 0,0
18.06.2018 02:00:00 15,5 10,3 15,0 7 4 14 8 S 38 0,0
18.06.2018 01:00:00 15,9 9,6 15,3 11 6 14 8 SSW 24 0,0
18.06.2018 00:00:00 16,6 9,3 16,0 11 6 22 12 WSW 32 0,0
17.06.2018 23:00:00 17,0 9,6 16,5 14 8 25 14 WSW 41 0,0
17.06.2018 22:00:00 16,7 11,3 16,0 7 4 11 6 SSW 35 0,0
17.06.2018 21:00:00 17,5 10,2 17,2 7 4 11 6 SSW 35 0,0
17.06.2018 20:00:00 17,7 10,0 17,9 7 4 22 12 WSW 19 0,0
17.06.2018 19:00:00 18,1 9,7 18,5 11 6 32 18 W 30 0,0
17.06.2018 18:00:00 18,6 8,9 20,7 18 10 32 18 WSW 39 0,0
17.06.2018 17:00:00 19,1 9,2 21,7 18 10 32 18 SW 29 0,0
17.06.2018 16:00:00 18,1 9,0 19,8 18 10 29 16 WSW 29 0,0
17.06.2018 15:00:00 18,6 9,4 20,6 18 10 29 16 SW 35 0,0
17.06.2018 14:00:00 17,4 8,7 18,9 22 12 32 18 W 35 0,0
17.06.2018 13:00:00 17,4 9,2 18,7 18 10 36 19 WSW 34 0,0
17.06.2018 12:00:00 17,5 9,4 20,2 22 12 36 19 SW 27 0,0
17.06.2018 11:00:00 17,1 10,4 18,6 18 10 29 16 WSW 25 0,0
17.06.2018 10:00:00 17,2 10,5 18,5 18 10 32 18 WSW 23 0,0
17.06.2018 09:00:00 16,4 9,9 18,1 22 12 32 18 WSW 22 0,0
17.06.2018 08:00:00 15,8 10,8 16,7 14 8 32 18 SW 25 0,0
17.06.2018 07:00:00 15,3 10,8 14,5 14 8 22 12 SW 33 0,0
17.06.2018 06:00:00 13,9 10,2 12,6 11 6 18 10 SSW 39 0,0
17.06.2018 05:00:00 12,8 9,8 11,6 11 6 18 10 SSW 40 0,0
17.06.2018 04:00:00 13,3 9,7 11,7 7 4 18 10 SW 46 0,0
17.06.2018 03:00:00 13,8 9,9 12,0 7 4 14 8 SSW 34 0,0
17.06.2018 02:00:00 13,0 8,9 10,1 11 6 11 6 SW 36 0,0
17.06.2018 01:00:00 13,8 9,3 11,4 11 6 14 8 SW 32 0,0
17.06.2018 00:00:00 15,2 10,5 12,5 11 6 18 10 WSW 30 0,0
16.06.2018 23:00:00 14,9 12,2 12,1 4 2 7 4 SW 17 0,0
16.06.2018 22:00:00 17,2 12,5 16,4 7 4 14 8 WNW 23 0,0
16.06.2018 21:00:00 19,2 12,6 19,5 14 8 25 14 NW 20 0,0
16.06.2018 20:00:00 21,3 11,3 21,6 18 10 32 18 WSW 30 0,0
16.06.2018 19:00:00 21,6 11,8 22,5 22 12 29 16 W 25 0,0

tt = Température de l'air
td = dewpoint
tt 5cm = Température de l'air 5cm
ff = Vitesse du vent
fx = gusts
dd = Direction du vent
vv = visibility
rr = Quantités de précipitations

stations d'obs. à proximité